Guthrie Center, Iowa
Current Conditions -  °F | °C
As of 3:35 AM on Sunday 26 Oct 2014 (Local Time) from KPRO Reporting Station
Clear Clear  
Wind Chill: 44°   Ceiling: Unl
Heat Index: 44°   Visibility: 10mi
Dew Point: 38°   Wind: 3mph
Humidity: 80%   Direction: 100°E
Pressure: 30.02"   Gusts: NA
Location:  41.68°N, 94.5°W
Report Text: KPRO 260835Z AUTO 10003KT 10SM CLR 07/03 A3002 RMK AO2 T00670034
Loading
Personal Weather Stations






























Interactive Weather Map
Tropical Storm Tracking
New forecast layout! Learn more

10-Day Weather Forecast

Advertisements
Track Severe Weather on mobile